sensor_id;sensor_type;location;lat;lon;timestamp;pressure;altitude;pressure_sealevel;temperature;humidity
38880;BME280;25887;30.194;-97.880;2023-03-15T00:00:49;99150.59;;;20.70;30.47
38880;BME280;25887;30.194;-97.880;2023-03-15T00:03:18;99159.31;;;20.70;30.61
38880;BME280;25887;30.194;-97.880;2023-03-15T00:05:46;99159.31;;;20.69;30.51
38880;BME280;25887;30.194;-97.880;2023-03-15T00:08:13;99156.72;;;20.69;30.45
38880;BME280;25887;30.194;-97.880;2023-03-15T00:10:41;99158.47;;;20.68;30.36
38880;BME280;25887;30.194;-97.880;2023-03-15T00:13:08;99168.06;;;20.68;30.49
38880;BME280;25887;30.194;-97.880;2023-03-15T00:15:35;99165.50;;;20.66;30.45
38880;BME280;25887;30.194;-97.880;2023-03-15T00:18:02;99176.84;;;20.65;30.26
38880;BME280;25887;30.194;-97.880;2023-03-15T00:20:29;99183.03;;;20.63;30.45
38880;BME280;25887;30.194;-97.880;2023-03-15T00:22:55;99190.94;;;20.59;30.71
38880;BME280;25887;30.194;-97.880;2023-03-15T00:25:22;99190.16;;;20.56;30.90
38880;BME280;25887;30.194;-97.880;2023-03-15T00:27:48;99209.34;;;20.53;30.96
38880;BME280;25887;30.194;-97.880;2023-03-15T00:30:14;99201.66;;;20.49;30.93
38880;BME280;25887;30.194;-97.880;2023-03-15T00:32:41;99199.09;;;20.47;31.39
38880;BME280;25887;30.194;-97.880;2023-03-15T00:35:10;99194.81;;;20.43;31.26
38880;BME280;25887;30.194;-97.880;2023-03-15T00:37:37;99188.78;;;20.41;31.17
38880;BME280;25887;30.194;-97.880;2023-03-15T00:40:05;99183.69;;;20.37;31.29
38880;BME280;25887;30.194;-97.880;2023-03-15T00:42:35;99185.53;;;20.33;31.56
38880;BME280;25887;30.194;-97.880;2023-03-15T00:45:01;99192.56;;;20.29;31.53
38880;BME280;25887;30.194;-97.880;2023-03-15T00:47:27;99182.28;;;20.25;31.70
38880;BME280;25887;30.194;-97.880;2023-03-15T00:49:54;99175.34;;;20.22;31.75
38880;BME280;25887;30.194;-97.880;2023-03-15T00:52:20;99176.25;;;20.21;31.88
38880;BME280;25887;30.194;-97.880;2023-03-15T00:54:54;99170.22;;;20.19;31.90
38880;BME280;25887;30.194;-97.880;2023-03-15T00:57:21;99185.09;;;20.17;31.79
38880;BME280;25887;30.194;-97.880;2023-03-15T00:59:47;99180.78;;;20.15;32.00
38880;BME280;25887;30.194;-97.880;2023-03-15T01:02:14;99175.66;;;20.12;32.02
38880;BME280;25887;30.194;-97.880;2023-03-15T01:04:40;99174.00;;;20.09;32.22
38880;BME280;25887;30.194;-97.880;2023-03-15T01:07:06;99175.75;;;20.09;32.16
38880;BME280;25887;30.194;-97.880;2023-03-15T01:09:35;99174.00;;;20.08;32.28
38880;BME280;25887;30.194;-97.880;2023-03-15T01:12:04;99175.00;;;20.03;32.29
38880;BME280;25887;30.194;-97.880;2023-03-15T01:14:30;99171.53;;;20.03;32.27
38880;BME280;25887;30.194;-97.880;2023-03-15T01:17:00;99181.13;;;20.02;32.21
38880;BME280;25887;30.194;-97.880;2023-03-15T01:26:02;99178.56;;;19.99;32.52
38880;BME280;25887;30.194;-97.880;2023-03-15T01:28:29;99189.88;;;20.00;32.49
38880;BME280;25887;30.194;-97.880;2023-03-15T01:30:55;99195.94;;;20.00;32.52
38880;BME280;25887;30.194;-97.880;2023-03-15T01:33:22;99193.34;;;19.99;32.49
38880;BME280;25887;30.194;-97.880;2023-03-15T01:39:35;99196.91;;;19.96;32.68
38880;BME280;25887;30.194;-97.880;2023-03-15T01:43:20;99205.72;;;19.92;32.65
38880;BME280;25887;30.194;-97.880;2023-03-15T01:46:29;99220.56;;;19.89;33.02
38880;BME280;25887;30.194;-97.880;2023-03-15T01:49:16;99216.22;;;19.89;32.90
38880;BME280;25887;30.194;-97.880;2023-03-15T01:57:05;99218.06;;;19.86;33.26
38880;BME280;25887;30.194;-97.880;2023-03-15T01:59:42;99225.91;;;19.83;33.35
38880;BME280;25887;30.194;-97.880;2023-03-15T02:02:10;99221.56;;;19.83;33.77
38880;BME280;25887;30.194;-97.880;2023-03-15T02:04:45;99228.66;;;19.78;33.78
38880;BME280;25887;30.194;-97.880;2023-03-15T02:07:14;99240.91;;;19.74;33.91
38880;BME280;25887;30.194;-97.880;2023-03-15T02:09:59;99246.16;;;19.73;34.01
38880;BME280;25887;30.194;-97.880;2023-03-15T02:12:27;99249.78;;;19.66;34.23
38880;BME280;25887;30.194;-97.880;2023-03-15T02:14:57;99237.78;;;19.59;34.26
38880;BME280;25887;30.194;-97.880;2023-03-15T02:17:46;99233.44;;;19.59;34.21
38880;BME280;25887;30.194;-97.880;2023-03-15T02:23:14;99231.81;;;19.52;34.60
38880;BME280;25887;30.194;-97.880;2023-03-15T02:28:48;99230.41;;;19.39;34.60
38880;BME280;25887;30.194;-97.880;2023-03-15T02:31:16;99237.44;;;19.34;35.37
38880;BME280;25887;30.194;-97.880;2023-03-15T02:33:48;99233.22;;;19.28;35.28
38880;BME280;25887;30.194;-97.880;2023-03-15T02:36:19;99236.72;;;19.27;35.46
38880;BME280;25887;30.194;-97.880;2023-03-15T02:38:46;99242.91;;;19.23;35.33
38880;BME280;25887;30.194;-97.880;2023-03-15T02:41:16;99243.75;;;19.22;35.65
38880;BME280;25887;30.194;-97.880;2023-03-15T02:43:45;99249.03;;;19.19;36.01
38880;BME280;25887;30.194;-97.880;2023-03-15T02:46:13;99249.09;;;19.17;35.75
38880;BME280;25887;30.194;-97.880;2023-03-15T02:48:40;99244.81;;;19.15;35.89
38880;BME280;25887;30.194;-97.880;2023-03-15T02:51:16;99247.41;;;19.13;35.87
38880;BME280;25887;30.194;-97.880;2023-03-15T02:54:13;99256.97;;;19.13;35.91
38880;BME280;25887;30.194;-97.880;2023-03-15T02:56:40;99252.75;;;19.09;36.10
38880;BME280;25887;30.194;-97.880;2023-03-15T02:59:07;99245.88;;;19.05;36.45
38880;BME280;25887;30.194;-97.880;2023-03-15T03:01:34;99251.94;;;19.05;36.14
38880;BME280;25887;30.194;-97.880;2023-03-15T03:04:04;99247.66;;;19.03;36.34
38880;BME280;25887;30.194;-97.880;2023-03-15T03:06:55;99240.72;;;19.02;36.25
38880;BME280;25887;30.194;-97.880;2023-03-15T03:09:25;99238.25;;;18.96;36.44
38880;BME280;25887;30.194;-97.880;2023-03-15T03:11:52;99237.44;;;18.93;36.67
38880;BME280;25887;30.194;-97.880;2023-03-15T03:14:18;99234.00;;;18.91;36.56
38880;BME280;25887;30.194;-97.880;2023-03-15T03:16:49;99237.47;;;18.90;36.69
38880;BME280;25887;30.194;-97.880;2023-03-15T03:19:16;99235.75;;;18.89;36.95
38880;BME280;25887;30.194;-97.880;2023-03-15T03:21:42;99238.34;;;18.89;36.69
38880;BME280;25887;30.194;-97.880;2023-03-15T03:24:11;99240.16;;;18.87;37.03
38880;BME280;25887;30.194;-97.880;2023-03-15T03:26:50;99241.97;;;18.84;36.82
38880;BME280;25887;30.194;-97.880;2023-03-15T03:29:16;99236.75;;;18.82;36.89
38880;BME280;25887;30.194;-97.880;2023-03-15T03:31:43;99246.34;;;18.80;36.90
38880;BME280;25887;30.194;-97.880;2023-03-15T03:34:09;99252.50;;;18.78;37.02
38880;BME280;25887;30.194;-97.880;2023-03-15T03:36:39;99261.19;;;18.77;36.89
38880;BME280;25887;30.194;-97.880;2023-03-15T03:39:05;99269.00;;;18.75;36.86
38880;BME280;25887;30.194;-97.880;2023-03-15T03:41:32;99264.72;;;18.73;37.00
38880;BME280;25887;30.194;-97.880;2023-03-15T03:43:58;99265.66;;;18.70;37.17
38880;BME280;25887;30.194;-97.880;2023-03-15T03:46:24;99270.91;;;18.67;37.22
38880;BME280;25887;30.194;-97.880;2023-03-15T03:48:50;99276.13;;;18.64;37.05
38880;BME280;25887;30.194;-97.880;2023-03-15T03:51:17;99273.59;;;18.59;37.25
38880;BME280;25887;30.194;-97.880;2023-03-15T03:53:43;99279.72;;;18.57;37.33
38880;BME280;25887;30.194;-97.880;2023-03-15T03:56:09;99274.63;;;18.52;37.19
38880;BME280;25887;30.194;-97.880;2023-03-15T03:58:35;99269.47;;;18.49;37.56
38880;BME280;25887;30.194;-97.880;2023-03-15T04:01:02;99275.59;;;18.47;37.44
38880;BME280;25887;30.194;-97.880;2023-03-15T04:03:28;99270.41;;;18.44;37.43
38880;BME280;25887;30.194;-97.880;2023-03-15T04:05:57;99274.88;;;18.38;37.52
38880;BME280;25887;30.194;-97.880;2023-03-15T04:08:24;99283.56;;;18.37;37.51
38880;BME280;25887;30.194;-97.880;2023-03-15T04:10:52;99280.16;;;18.32;37.40
38880;BME280;25887;30.194;-97.880;2023-03-15T04:13:20;99283.69;;;18.28;37.77
38880;BME280;25887;30.194;-97.880;2023-03-15T04:15:47;99286.34;;;18.25;37.42
38880;BME280;25887;30.194;-97.880;2023-03-15T04:18:14;99293.38;;;18.20;37.45
38880;BME280;25887;30.194;-97.880;2023-03-15T04:20:41;99295.16;;;18.17;37.76
38880;BME280;25887;30.194;-97.880;2023-03-15T04:23:14;99300.47;;;18.10;37.54
38880;BME280;25887;30.194;-97.880;2023-03-15T04:25:41;99300.53;;;18.04;37.94
38880;BME280;25887;30.194;-97.880;2023-03-15T04:28:08;99303.22;;;18.01;37.59
38880;BME280;25887;30.194;-97.880;2023-03-15T04:30:37;99305.88;;;17.98;37.98
38880;BME280;25887;30.194;-97.880;2023-03-15T04:33:04;99313.72;;;17.94;38.18
38880;BME280;25887;30.194;-97.880;2023-03-15T04:35:33;99301.63;;;17.90;38.11
38880;BME280;25887;30.194;-97.880;2023-03-15T04:38:00;99304.28;;;17.87;38.08
38880;BME280;25887;30.194;-97.880;2023-03-15T04:40:27;99307.84;;;17.81;38.07
38880;BME280;25887;30.194;-97.880;2023-03-15T04:42:53;99304.47;;;17.76;38.19
38880;BME280;25887;30.194;-97.880;2023-03-15T04:45:23;99308.81;;;17.72;38.11
38880;BME280;25887;30.194;-97.880;2023-03-15T04:47:50;99306.28;;;17.68;38.24
38880;BME280;25887;30.194;-97.880;2023-03-15T04:50:17;99298.56;;;17.62;38.29
38880;BME280;25887;30.194;-97.880;2023-03-15T04:53:10;99300.28;;;17.61;38.33
38880;BME280;25887;30.194;-97.880;2023-03-15T04:55:37;99302.16;;;17.51;38.40
38880;BME280;25887;30.194;-97.880;2023-03-15T04:58:03;99300.47;;;17.47;38.77
38880;BME280;25887;30.194;-97.880;2023-03-15T05:00:29;99297.03;;;17.45;38.62
38880;BME280;25887;30.194;-97.880;2023-03-15T05:02:56;99307.47;;;17.41;38.75
38880;BME280;25887;30.194;-97.880;2023-03-15T05:05:22;99305.81;;;17.35;38.77
38880;BME280;25887;30.194;-97.880;2023-03-15T05:07:49;99295.53;;;17.29;38.78
38880;BME280;25887;30.194;-97.880;2023-03-15T05:10:16;99304.19;;;17.26;38.70
38880;BME280;25887;30.194;-97.880;2023-03-15T05:12:42;99299.94;;;17.19;38.78
38880;BME280;25887;30.194;-97.880;2023-03-15T05:15:09;99301.75;;;17.14;38.81
38880;BME280;25887;30.194;-97.880;2023-03-15T05:17:35;99305.31;;;17.07;38.88
38880;BME280;25887;30.194;-97.880;2023-03-15T05:20:02;99309.69;;;17.02;39.05
38880;BME280;25887;30.194;-97.880;2023-03-15T05:22:35;99306.31;;;16.92;39.15
38880;BME280;25887;30.194;-97.880;2023-03-15T05:25:17;99303.78;;;16.88;39.20
38880;BME280;25887;30.194;-97.880;2023-03-15T05:27:43;99306.50;;;16.77;39.02
38880;BME280;25887;30.194;-97.880;2023-03-15T05:30:11;99306.56;;;16.68;38.99
38880;BME280;25887;30.194;-97.880;2023-03-15T05:32:39;99299.72;;;16.59;39.35
38880;BME280;25887;30.194;-97.880;2023-03-15T05:35:09;99292.03;;;16.47;39.35
38880;BME280;25887;30.194;-97.880;2023-03-15T05:37:36;99297.28;;;16.44;39.30
38880;BME280;25887;30.194;-97.880;2023-03-15T05:40:03;99293.03;;;16.35;39.45
38880;BME280;25887;30.194;-97.880;2023-03-15T05:42:33;99278.41;;;16.25;39.65
38880;BME280;25887;30.194;-97.880;2023-03-15T05:44:59;99283.63;;;16.21;39.60
38880;BME280;25887;30.194;-97.880;2023-03-15T05:47:26;99280.25;;;16.12;39.82
38880;BME280;25887;30.194;-97.880;2023-03-15T05:49:52;99285.50;;;16.05;39.78
38880;BME280;25887;30.194;-97.880;2023-03-15T05:52:18;99286.38;;;15.99;39.85
38880;BME280;25887;30.194;-97.880;2023-03-15T05:54:45;99288.16;;;15.94;39.90
38880;BME280;25887;30.194;-97.880;2023-03-15T05:57:11;99287.34;;;15.87;39.94
38880;BME280;25887;30.194;-97.880;2023-03-15T05:59:37;99288.25;;;15.82;39.97
38880;BME280;25887;30.194;-97.880;2023-03-15T06:02:05;99285.69;;;15.76;40.03
38880;BME280;25887;30.194;-97.880;2023-03-15T06:04:58;99285.72;;;15.68;40.08
38880;BME280;25887;30.194;-97.880;2023-03-15T06:07:25;99289.22;;;15.63;40.39
38880;BME280;25887;30.194;-97.880;2023-03-15T06:09:51;99284.88;;;15.60;40.35
38880;BME280;25887;30.194;-97.880;2023-03-15T06:12:17;99272.81;;;15.56;40.46
38880;BME280;25887;30.194;-97.880;2023-03-15T06:14:44;99271.97;;;15.52;40.38
38880;BME280;25887;30.194;-97.880;2023-03-15T06:17:10;99286.69;;;15.47;40.63
38880;BME280;25887;30.194;-97.880;2023-03-15T06:19:37;99278.94;;;15.44;40.42
38880;BME280;25887;30.194;-97.880;2023-03-15T06:22:03;99276.38;;;15.41;40.63
38880;BME280;25887;30.194;-97.880;2023-03-15T06:24:29;99278.09;;;15.39;40.55
38880;BME280;25887;30.194;-97.880;2023-03-15T06:26:55;99277.25;;;15.37;40.85
38880;BME280;25887;30.194;-97.880;2023-03-15T06:29:22;99279.00;;;15.33;40.97
38880;BME280;25887;30.194;-97.880;2023-03-15T06:31:48;99283.34;;;15.27;40.60
38880;BME280;25887;30.194;-97.880;2023-03-15T06:34:15;99273.88;;;15.20;40.88
38880;BME280;25887;30.194;-97.880;2023-03-15T06:36:42;99267.84;;;15.15;40.90
38880;BME280;25887;30.194;-97.880;2023-03-15T06:39:08;99257.53;;;15.07;41.00
38880;BME280;25887;30.194;-97.880;2023-03-15T06:41:37;99270.50;;;15.04;40.95
38880;BME280;25887;30.194;-97.880;2023-03-15T06:44:13;99272.22;;;15.00;40.72
38880;BME280;25887;30.194;-97.880;2023-03-15T06:46:39;99273.97;;;14.91;41.04
38880;BME280;25887;30.194;-97.880;2023-03-15T06:49:05;99272.28;;;14.84;40.97
38880;BME280;25887;30.194;-97.880;2023-03-15T06:51:32;99260.22;;;14.76;40.74
38880;BME280;25887;30.194;-97.880;2023-03-15T06:54:03;99263.69;;;14.72;40.93
38880;BME280;25887;30.194;-97.880;2023-03-15T06:56:29;99262.00;;;14.64;41.19
38880;BME280;25887;30.194;-97.880;2023-03-15T06:58:56;99262.84;;;14.58;41.05
38880;BME280;25887;30.194;-97.880;2023-03-15T07:01:23;99260.28;;;14.52;41.36
38880;BME280;25887;30.194;-97.880;2023-03-15T07:03:49;99262.88;;;14.51;41.39
38880;BME280;25887;30.194;-97.880;2023-03-15T07:06:15;99258.56;;;14.48;41.39
38880;BME280;25887;30.194;-97.880;2023-03-15T07:08:42;99255.09;;;14.44;41.14
38880;BME280;25887;30.194;-97.880;2023-03-15T07:11:08;99237.84;;;14.39;41.53
38880;BME280;25887;30.194;-97.880;2023-03-15T07:13:49;99240.47;;;14.34;41.34
38880;BME280;25887;30.194;-97.880;2023-03-15T07:16:16;99248.22;;;14.27;41.29
38880;BME280;25887;30.194;-97.880;2023-03-15T07:18:42;99249.94;;;14.28;41.62
38880;BME280;25887;30.194;-97.880;2023-03-15T07:21:08;99241.31;;;14.27;41.87
38880;BME280;25887;30.194;-97.880;2023-03-15T07:23:34;99234.44;;;14.32;41.86
38880;BME280;25887;30.194;-97.880;2023-03-15T07:26:00;99230.13;;;14.33;41.69
38880;BME280;25887;30.194;-97.880;2023-03-15T07:28:31;99228.38;;;14.38;41.74
38880;BME280;25887;30.194;-97.880;2023-03-15T07:31:35;99241.31;;;14.47;41.66
38880;BME280;25887;30.194;-97.880;2023-03-15T07:34:21;99249.06;;;14.53;41.89
38880;BME280;25887;30.194;-97.880;2023-03-15T07:36:47;99243.88;;;14.61;41.98
38880;BME280;25887;30.194;-97.880;2023-03-15T07:39:14;99226.63;;;14.66;42.11
38880;BME280;25887;30.194;-97.880;2023-03-15T07:41:40;99219.72;;;14.69;41.64
38880;BME280;25887;30.194;-97.880;2023-03-15T07:44:07;99234.38;;;14.73;41.95
38880;BME280;25887;30.194;-97.880;2023-03-15T07:46:33;99243.84;;;14.81;41.66
38880;BME280;25887;30.194;-97.880;2023-03-15T07:48:59;99241.22;;;14.87;41.94
38880;BME280;25887;30.194;-97.880;2023-03-15T07:51:25;99251.53;;;14.93;41.70
38880;BME280;25887;30.194;-97.880;2023-03-15T07:53:53;99248.94;;;14.97;41.89
38880;BME280;25887;30.194;-97.880;2023-03-15T07:56:19;99253.25;;;15.00;41.63
38880;BME280;25887;30.194;-97.880;2023-03-15T07:58:45;99249.78;;;15.04;41.89
38880;BME280;25887;30.194;-97.880;2023-03-15T08:01:11;99254.94;;;15.05;41.78
38880;BME280;25887;30.194;-97.880;2023-03-15T08:03:37;99248.03;;;15.09;41.79
38880;BME280;25887;30.194;-97.880;2023-03-15T08:06:03;99253.19;;;15.12;41.63
38880;BME280;25887;30.194;-97.880;2023-03-15T08:08:30;99253.19;;;15.15;41.79
38880;BME280;25887;30.194;-97.880;2023-03-15T08:10:56;99249.72;;;15.18;41.82
38880;BME280;25887;30.194;-97.880;2023-03-15T08:13:24;99245.41;;;15.20;41.93
38880;BME280;25887;30.194;-97.880;2023-03-15T08:16:05;99247.94;;;15.24;41.62
38880;BME280;25887;30.194;-97.880;2023-03-15T08:18:32;99242.78;;;15.24;41.77
38880;BME280;25887;30.194;-97.880;2023-03-15T08:20:58;99250.56;;;15.26;41.90
38880;BME280;25887;30.194;-97.880;2023-03-15T08:23:24;99246.25;;;15.26;41.81
38880;BME280;25887;30.194;-97.880;2023-03-15T08:25:50;99251.41;;;15.28;41.48
38880;BME280;25887;30.194;-97.880;2023-03-15T08:28:17;99246.19;;;15.31;41.88
38880;BME280;25887;30.194;-97.880;2023-03-15T08:30:43;99250.50;;;15.32;41.42
38880;BME280;25887;30.194;-97.880;2023-03-15T08:33:09;99246.19;;;15.34;41.82
38880;BME280;25887;30.194;-97.880;2023-03-15T08:35:59;99252.25;;;15.35;41.53
38880;BME280;25887;30.194;-97.880;2023-03-15T08:39:00;99252.22;;;15.38;41.70
38880;BME280;25887;30.194;-97.880;2023-03-15T08:41:28;99235.84;;;15.34;41.53
38880;BME280;25887;30.194;-97.880;2023-03-15T08:43:54;99229.78;;;15.35;41.54
38880;BME280;25887;30.194;-97.880;2023-03-15T08:46:20;99232.38;;;15.37;41.72
38880;BME280;25887;30.194;-97.880;2023-03-15T08:49:11;99228.00;;;15.40;41.60
38880;BME280;25887;30.194;-97.880;2023-03-15T08:58:39;99223.75;;;15.31;41.51
38880;BME280;25887;30.194;-97.880;2023-03-15T09:01:09;99213.41;;;15.30;41.74
38880;BME280;25887;30.194;-97.880;2023-03-15T09:06:59;99209.97;;;15.28;41.74
38880;BME280;25887;30.194;-97.880;2023-03-15T09:09:26;99207.41;;;15.26;41.90
38880;BME280;25887;30.194;-97.880;2023-03-15T09:12:00;99203.97;;;15.26;41.53
38880;BME280;25887;30.194;-97.880;2023-03-15T09:14:27;99201.38;;;15.23;41.82
38880;BME280;25887;30.194;-97.880;2023-03-15T09:17:08;99201.38;;;15.23;41.42
38880;BME280;25887;30.194;-97.880;2023-03-15T09:22:57;99178.13;;;15.15;41.48
38880;BME280;25887;30.194;-97.880;2023-03-15T09:32:06;99204.06;;;15.04;41.53
38880;BME280;25887;30.194;-97.880;2023-03-15T09:41:00;99180.81;;;14.95;41.75
38880;BME280;25887;30.194;-97.880;2023-03-15T09:46:29;99166.16;;;14.93;41.66
38880;BME280;25887;30.194;-97.880;2023-03-15T09:52:42;99173.94;;;14.91;41.73
38880;BME280;25887;30.194;-97.880;2023-03-15T09:55:39;99166.19;;;14.88;41.63
38880;BME280;25887;30.194;-97.880;2023-03-15T09:58:33;99163.59;;;14.85;41.78
38880;BME280;25887;30.194;-97.880;2023-03-15T10:01:30;99165.34;;;14.85;41.69
38880;BME280;25887;30.194;-97.880;2023-03-15T10:07:19;99161.09;;;14.73;41.64
38880;BME280;25887;30.194;-97.880;2023-03-15T10:13:20;99156.78;;;14.69;41.95
38880;BME280;25887;30.194;-97.880;2023-03-15T10:16:09;99161.09;;;14.67;41.91
38880;BME280;25887;30.194;-97.880;2023-03-15T10:28:52;99147.38;;;14.51;42.05
38880;BME280;25887;30.194;-97.880;2023-03-15T10:34:39;99145.63;;;14.44;42.35
38880;BME280;25887;30.194;-97.880;2023-03-15T10:37:08;99136.16;;;14.43;42.15
38880;BME280;25887;30.194;-97.880;2023-03-15T10:39:34;99135.31;;;14.42;42.10
38880;BME280;25887;30.194;-97.880;2023-03-15T10:42:01;99139.63;;;14.40;42.51
38880;BME280;25887;30.194;-97.880;2023-03-15T10:44:28;99134.44;;;14.39;42.30
38880;BME280;25887;30.194;-97.880;2023-03-15T10:47:12;99132.72;;;14.38;42.36
38880;BME280;25887;30.194;-97.880;2023-03-15T10:49:40;99125.00;;;14.33;42.38
38880;BME280;25887;30.194;-97.880;2023-03-15T10:52:33;99125.88;;;14.34;42.28
38880;BME280;25887;30.194;-97.880;2023-03-15T10:55:03;99129.31;;;14.28;42.28
38880;BME280;25887;30.194;-97.880;2023-03-15T10:57:37;99137.06;;;14.28;42.38
38880;BME280;25887;30.194;-97.880;2023-03-15T11:00:17;99129.31;;;14.23;42.72
38880;BME280;25887;30.194;-97.880;2023-03-15T11:03:22;99129.34;;;14.25;42.90
38880;BME280;25887;30.194;-97.880;2023-03-15T11:05:50;99125.91;;;14.18;42.55
38880;BME280;25887;30.194;-97.880;2023-03-15T11:08:23;99122.47;;;14.18;42.78
38880;BME280;25887;30.194;-97.880;2023-03-15T11:13:59;99121.63;;;14.11;42.95
38880;BME280;25887;30.194;-97.880;2023-03-15T11:16:26;99113.84;;;14.07;42.57
38880;BME280;25887;30.194;-97.880;2023-03-15T11:19:02;99108.69;;;14.05;42.84
38880;BME280;25887;30.194;-97.880;2023-03-15T11:21:37;99107.88;;;14.02;43.34
38880;BME280;25887;30.194;-97.880;2023-03-15T11:24:06;99110.44;;;14.00;42.84
38880;BME280;25887;30.194;-97.880;2023-03-15T11:26:37;99106.13;;;14.01;43.00
38880;BME280;25887;30.194;-97.880;2023-03-15T11:29:17;99093.19;;;14.01;42.96
38880;BME280;25887;30.194;-97.880;2023-03-15T11:31:46;99100.09;;;13.99;43.01
38880;BME280;25887;30.194;-97.880;2023-03-15T11:37:03;99124.22;;;13.96;43.48
38880;BME280;25887;30.194;-97.880;2023-03-15T11:40:03;99134.53;;;13.99;43.11
38880;BME280;25887;30.194;-97.880;2023-03-15T11:42:37;99138.84;;;13.99;43.39
38880;BME280;25887;30.194;-97.880;2023-03-15T11:48:15;99146.59;;;14.00;43.56
38880;BME280;25887;30.194;-97.880;2023-03-15T11:50:44;99139.72;;;13.99;43.71
38880;BME280;25887;30.194;-97.880;2023-03-15T11:53:15;99144.88;;;13.99;43.59
38880;BME280;25887;30.194;-97.880;2023-03-15T11:55:47;99143.16;;;14.00;43.35
38880;BME280;25887;30.194;-97.880;2023-03-15T11:58:35;99144.88;;;14.02;43.75
38880;BME280;25887;30.194;-97.880;2023-03-15T12:01:10;99138.84;;;14.00;43.32
38880;BME280;25887;30.194;-97.880;2023-03-15T12:03:37;99138.00;;;13.98;43.24
38880;BME280;25887;30.194;-97.880;2023-03-15T12:06:08;99135.41;;;13.97;43.43
38880;BME280;25887;30.194;-97.880;2023-03-15T12:08:53;99129.38;;;13.99;43.65
38880;BME280;25887;30.194;-97.880;2023-03-15T12:16:26;99150.94;;;13.93;43.69
38880;BME280;25887;30.194;-97.880;2023-03-15T12:18:57;99162.97;;;13.98;43.63
38880;BME280;25887;30.194;-97.880;2023-03-15T12:21:40;99148.31;;;13.98;43.47
38880;BME280;25887;30.194;-97.880;2023-03-15T12:24:21;99163.81;;;13.98;43.73
38880;BME280;25887;30.194;-97.880;2023-03-15T12:26:49;99175.88;;;13.98;43.48
38880;BME280;25887;30.194;-97.880;2023-03-15T12:29:26;99165.56;;;13.98;43.70
38880;BME280;25887;30.194;-97.880;2023-03-15T12:37:52;99168.16;;;13.96;43.99
38880;BME280;25887;30.194;-97.880;2023-03-15T12:56:27;99175.03;;;13.92;43.90
38880;BME280;25887;30.194;-97.880;2023-03-15T12:59:18;99175.03;;;13.89;43.94
38880;BME280;25887;30.194;-97.880;2023-03-15T13:01:45;99181.91;;;13.84;43.94
38880;BME280;25887;30.194;-97.880;2023-03-15T13:04:12;99180.19;;;13.85;44.04
38880;BME280;25887;30.194;-97.880;2023-03-15T13:17:30;99187.09;;;13.93;44.00
38880;BME280;25887;30.194;-97.880;2023-03-15T13:23:12;99181.91;;;13.97;43.92
38880;BME280;25887;30.194;-97.880;2023-03-15T13:28:26;99188.78;;;14.01;44.09
38880;BME280;25887;30.194;-97.880;2023-03-15T13:31:29;99200.00;;;14.10;44.25
38880;BME280;25887;30.194;-97.880;2023-03-15T13:34:18;99203.44;;;14.14;43.94
38880;BME280;25887;30.194;-97.880;2023-03-15T13:36:47;99206.88;;;14.14;44.30
38880;BME280;25887;30.194;-97.880;2023-03-15T13:39:37;99208.56;;;14.23;43.99
38880;BME280;25887;30.194;-97.880;2023-03-15T13:45:25;99218.91;;;14.31;43.95
38880;BME280;25887;30.194;-97.880;2023-03-15T13:47:51;99219.78;;;14.40;44.32
38880;BME280;25887;30.194;-97.880;2023-03-15T13:50:19;99212.84;;;14.44;44.21
38880;BME280;25887;30.194;-97.880;2023-03-15T13:52:47;99206.84;;;14.46;44.30
38880;BME280;25887;30.194;-97.880;2023-03-15T13:55:15;99203.41;;;14.49;44.16
38880;BME280;25887;30.194;-97.880;2023-03-15T13:57:45;99216.31;;;14.54;44.48
38880;BME280;25887;30.194;-97.880;2023-03-15T14:00:16;99213.72;;;14.57;44.37
38880;BME280;25887;30.194;-97.880;2023-03-15T14:02:57;99222.31;;;14.62;44.15
38880;BME280;25887;30.194;-97.880;2023-03-15T14:05:45;99216.28;;;14.66;43.97
38880;BME280;25887;30.194;-97.880;2023-03-15T14:08:38;99224.00;;;14.70;44.10
38880;BME280;25887;30.194;-97.880;2023-03-15T14:11:30;99220.56;;;14.74;44.42
38880;BME280;25887;30.194;-97.880;2023-03-15T14:13:59;99223.13;;;14.76;44.02
38880;BME280;25887;30.194;-97.880;2023-03-15T14:16:45;99219.66;;;14.86;44.04
38880;BME280;25887;30.194;-97.880;2023-03-15T14:22:33;99226.53;;;14.96;44.02
38880;BME280;25887;30.194;-97.880;2023-03-15T14:24:42;99243.72;;;15.07;44.09
38880;BME280;25887;30.194;-97.880;2023-03-15T14:27:17;99254.03;;;15.16;44.25
38880;BME280;25887;30.194;-97.880;2023-03-15T14:29:50;99257.44;;;15.27;44.04
38880;BME280;25887;30.194;-97.880;2023-03-15T14:32:36;99261.72;;;15.36;44.32
38880;BME280;25887;30.194;-97.880;2023-03-15T14:35:20;99261.72;;;15.37;44.07
38880;BME280;25887;30.194;-97.880;2023-03-15T14:37:47;99271.19;;;15.40;44.03
38880;BME280;25887;30.194;-97.880;2023-03-15T14:40:31;99265.13;;;15.44;44.23
38880;BME280;25887;30.194;-97.880;2023-03-15T14:43:26;99270.25;;;15.53;44.12
38880;BME280;25887;30.194;-97.880;2023-03-15T14:46:07;99266.78;;;15.62;43.94
38880;BME280;25887;30.194;-97.880;2023-03-15T14:48:33;99262.41;;;15.68;43.92
38880;BME280;25887;30.194;-97.880;2023-03-15T14:51:14;99262.38;;;15.76;44.10
38880;BME280;25887;30.194;-97.880;2023-03-15T14:53:41;99258.03;;;15.81;44.01
38880;BME280;25887;30.194;-97.880;2023-03-15T14:56:14;99259.66;;;15.91;44.13
38880;BME280;25887;30.194;-97.880;2023-03-15T15:01:56;99259.44;;;16.17;44.08
38880;BME280;25887;30.194;-97.880;2023-03-15T15:04:32;99261.03;;;16.33;44.04
38880;BME280;25887;30.194;-97.880;2023-03-15T15:06:59;99241.91;;;16.47;44.11
38880;BME280;25887;30.194;-97.880;2023-03-15T15:09:28;99242.63;;;16.61;44.06
38880;BME280;25887;30.194;-97.880;2023-03-15T15:11:55;99257.22;;;16.74;44.35
38880;BME280;25887;30.194;-97.880;2023-03-15T15:14:22;99251.03;;;16.86;44.02
38880;BME280;25887;30.194;-97.880;2023-03-15T15:16:58;99246.66;;;16.91;44.01
38880;BME280;25887;30.194;-97.880;2023-03-15T15:19:24;99241.41;;;16.94;43.94